Skip Navigation Links Skip Navigation Links

Current Weather

Roanoke Regional/Woodrum Field, Roanoke, Va.

For information only: do not use for flight planning or navigation.
Latest weather
Observation time Wednesday, February 20, 2019 12:35 PM EST
Local time Wednesday, February 20, 2019 12:55 PM EST
Flight conditions Low Instrument Meteorological Conditions
Winds
Wind direction East-Southeast (110°)
Wind speed 5 mph
Visibility 1.5 mi.
Present weather FZDZ, mist
Sky condition
Ceiling 400 ft. broken clouds
Cloud layer broken clouds 400 ft.
Cloud layer broken clouds 1,500 ft.
Cloud layer overcast 1,900 ft.
Temperature 32°F
Dewpoint 30°F
Altimeter 30.35 in.Hg
Derived measurements
Relative humidity 93%
Wind chill 27°F
Density altitude -1066 ft.
Remarks
Special weather observation.
METAR SPUS81 KWBC 201739 SPECI KROA 201735Z 11004KT 1 1/2SM -FZDZ BR BKN004 BKN015 OVC019 00/M01 A3035

Settings

Location code

InnerDrive.Weather 4.0.6770.0 Release CLR 4.0.30319.42000
Copyright ©2018 Inner Drive Technology. All rights reserved. Portions Copyright ©1986-2018 David Braverman.

Find weather

Site navigation


Skip Navigation Links

Place info

Page info

PayPal - The safer, easier way to pay online!

Return home.

Copyright ©2019 Inner Drive Technology. Purveyors of fine, hand-crafted computer software. Page printed 2019-02-20T17:55:20 UTC.